Saltar al contingut principal

Dades de l'estació automàtica Sant Cugat del Vallès - CAR

Selector estació i data
?
?

Resum diari

22:00 TU
Dades diàries de l'estació meteorològica
Temperatura mitjana 24.6 °C
Temperatura màxima 31.1 °C 12:21 TU
Temperatura mínima 18.0 °C 3:30 TU
Humitat relativa mitjana 70%
Precipitació acumulada 0.0 mm
Ratxa màxima del vent (10 m) 28.8 km/h - 154º 13:01 TU
Irradiació solar global 28.0 MJ/m2

El tram horari està expressat en Temps Universal (TU). Cal sumar una hora en horari d'hivern i dues en horari d'estiu per passar a l'hora oficial.

Sant Cugat del Vallès - CAR

Metadades estació meteorològica
Municipi Sant Cugat del Vallès
Comarca Vallès Occidental
Altitud 158 m
Data alta 08.08.2013
Estat actual Operativa
Dades de període
Període
TU
TM
°C
TX
°C
TN
°C
HRM
%
PPT
mm
VVM (10 m)
km/h
DVM (10 m)
graus
VVX (10 m)
km/h
RS
W/m2
00:00 - 00:30 19.4 19.6 19.2 83 0.0 1.4 315 3.2 0
00:30 - 01:00 19.1 19.3 18.9 84 0.0 0.4 304 2.2 0
01:00 - 01:30 18.8 18.9 18.6 86 0.0 0.4 293 2.2 0
01:30 - 02:00 18.6 18.7 18.5 87 0.0 0.4 261 1.4 0
02:00 - 02:30 18.5 18.6 18.4 87 0.0 1.4 48 3.6 0
02:30 - 03:00 18.2 18.4 18.2 88 0.0 0.4 208 1.8 0
03:00 - 03:30 18.1 18.2 18.0 88 0.0 1.4 244 4.0 0
03:30 - 04:00 18.3 18.5 18.0 88 0.0 1.8 240 6.1 0
04:00 - 04:30 18.5 18.7 18.4 86 0.0 3.2 240 6.1 0
04:30 - 05:00 18.6 18.7 18.6 85 0.0 3.6 250 8.3 13
05:00 - 05:30 18.7 18.7 18.6 85 0.0 4.3 242 9.7 28
05:30 - 06:00 19.1 19.6 18.7 83 0.0 5.0 253 9.4 84
06:00 - 06:30 20.0 20.8 19.6 79 0.0 3.6 258 10.1 196
06:30 - 07:00 21.2 21.5 20.8 75 0.0 4.3 238 8.3 294
07:00 - 07:30 22.2 23.0 21.5 72 0.0 5.4 232 10.8 400
07:30 - 08:00 23.6 24.3 23.1 66 0.0 5.4 239 17.6 473
08:00 - 08:30 24.6 25.2 24.0 64 0.0 8.3 232 17.3 593
08:30 - 09:00 25.4 26.2 25.0 62 0.0 8.3 255 19.1 606
09:00 - 09:30 26.1 26.6 25.6 60 0.0 10.4 264 23.0 614
09:30 - 10:00 27.3 27.8 26.7 57 0.0 12.6 270 27.0 775
10:00 - 10:30 27.7 28.7 26.9 56 0.0 10.8 260 24.5 870
10:30 - 11:00 28.3 29.2 27.7 55 0.0 8.6 249 19.1 899
11:00 - 11:30 29.2 30.1 28.4 52 0.0 7.9 250 22.7 921
11:30 - 12:00 30.3 30.9 29.8 51 0.0 7.2 206 22.7 933
12:00 - 12:30 30.4 31.1 29.6 53 0.0 7.9 175 18.7 930
12:30 - 13:00 30.3 30.9 29.7 54 0.0 9.0 179 22.0 920
13:00 - 13:30 30.0 30.5 29.7 56 0.0 10.4 178 28.8 899
13:30 - 14:00 30.0 30.9 29.3 57 0.0 9.4 186 25.9 858
14:00 - 14:30 29.7 30.1 29.3 58 0.0 9.7 180 23.0 799
14:30 - 15:00 30.1 30.6 29.7 57 0.0 9.7 181 24.1 728
15:00 - 15:30 29.9 30.1 29.6 58 0.0 9.4 175 23.0 618
15:30 - 16:00 29.6 30.3 29.1 60 0.0 8.3 183 23.0 582
16:00 - 16:30 29.0 29.5 28.4 63 0.0 8.3 180 24.5 487
16:30 - 17:00 28.5 29.1 27.9 65 0.0 8.3 175 22.0 391
17:00 - 17:30 28.1 28.7 27.7 66 0.0 7.9 180 19.1 306
17:30 - 18:00 27.6 27.8 27.5 67 0.0 6.5 191 16.9 213
18:00 - 18:30 27.1 27.7 26.7 66 0.0 9.4 217 20.9 124
18:30 - 19:00 26.3 26.6 26.0 69 0.0 10.1 225 19.8 50
19:00 - 19:30 25.6 25.9 25.4 71 0.0 7.2 216 16.6 9
19:30 - 20:00 25.2 25.4 25.0 73 0.0 5.8 216 14.8 0
20:00 - 20:30 24.9 25.0 24.8 73 0.0 6.8 229 14.8 0
20:30 - 21:00 24.7 24.8 24.5 73 0.0 5.4 229 11.5 0
21:00 - 21:30 24.3 24.6 24.1 74 0.0 4.0 250 9.0 0
21:30 - 22:00 23.7 24.2 23.5 76 0.0 1.1 224 4.3 0
22:00 - 22:30 23.1 23.6 22.6 79 0.0 0.7 39 2.9 0

Les dades en taronja només han passat un control de qualitat automàtic. Resta pendent la seva validació definitiva.